Time;durP1;ratioP1;P1;durP2;ratioP2;P2;SDS_P1;SDS_P2;PMS_P1;PMS_P2;Temp;Humidity;BMP_temperature;BMP_pressure;BME280_temperature;BME280_humidity;BME280_pressure;Samples;Min_cycle;Max_cycle;Signal;HPM_P1;HPM_P2
2022/03/17 00:01:08;;;;;;;19.00;9.90;;;;;;;-1.27;54.81;102684.89;107615;1244;62346;-68
2022/03/17 00:03:37;;;;;;;18.80;10.20;;;;;;;-1.26;54.12;102686.59;107567;1244;74819;-66
2022/03/17 00:06:06;;;;;;;24.80;10.30;;;;;;;-1.30;54.23;102692.55;107667;1244;72220;-64
2022/03/17 00:08:35;;;;;;;19.50;9.50;;;;;;;-1.38;53.73;102691.11;107626;1244;68148;-65
2022/03/17 00:11:04;;;;;;;13.60;7.50;;;;;;;-1.41;53.76;102691.09;107608;1244;73517;-65
2022/03/17 00:13:33;;;;;;;15.40;8.30;;;;;;;-1.46;53.16;102694.30;107587;1244;60961;-67
2022/03/17 00:16:04;;;;;;;14.60;8.10;;;;;;;-1.51;53.08;102690.31;107628;1244;60983;-68
2022/03/17 00:18:33;;;;;;;19.00;9.90;;;;;;;-1.55;52.90;102694.37;107733;1244;73389;-67
2022/03/17 00:21:11;;;;;;;16.30;7.30;;;;;;;-1.57;52.56;102694.53;107682;1244;69831;-65
2022/03/17 00:23:40;;;;;;;16.70;8.50;;;;;;;-1.60;52.80;102699.97;107703;1244;70543;-66
2022/03/17 00:26:10;;;;;;;17.90;7.80;;;;;;;-1.61;52.61;102705.09;107599;1244;74896;-67
2022/03/17 00:28:39;;;;;;;14.90;8.10;;;;;;;-1.63;52.04;102705.59;107786;1245;61847;-65
2022/03/17 00:31:09;;;;;;;17.40;8.60;;;;;;;-1.65;51.96;102708.96;107642;1247;62042;-67
2022/03/17 00:33:38;;;;;;;13.00;7.90;;;;;;;-1.69;51.60;102711.67;107680;1246;72598;-66
2022/03/17 00:36:07;;;;;;;17.10;7.40;;;;;;;-1.71;51.61;102714.38;107611;1245;70901;-66
2022/03/17 00:38:37;;;;;;;13.40;6.40;;;;;;;-1.74;51.61;102712.65;107636;1246;70889;-68
2022/03/17 00:41:06;;;;;;;12.10;6.50;;;;;;;-1.77;51.11;102713.46;107422;1245;72676;-66
2022/03/17 00:43:35;;;;;;;11.80;6.50;;;;;;;-1.78;50.73;102714.30;107497;1246;60082;-65
2022/03/17 00:46:09;;;;;;;10.60;6.40;;;;;;;-1.86;51.25;102720.71;107373;1246;58776;-65
2022/03/17 00:48:38;;;;;;;13.20;6.60;;;;;;;-1.93;51.14;102720.98;107607;1244;71593;-67
2022/03/17 00:51:08;;;;;;;12.60;6.70;;;;;;;-1.96;51.22;102722.98;107517;1246;70564;-65
2022/03/17 00:53:37;;;;;;;11.60;6.20;;;;;;;-2.00;50.88;102727.38;107494;1244;70873;-66
2022/03/17 00:56:05;;;;;;;11.70;5.70;;;;;;;-2.05;51.34;102732.95;107606;1243;74434;-66
2022/03/17 00:58:34;;;;;;;9.20;5.30;;;;;;;-2.11;51.04;102734.42;107557;1244;62646;-67
2022/03/17 01:01:03;;;;;;;10.80;5.30;;;;;;;-2.16;51.03;102734.01;107597;1244;60443;-67
2022/03/17 01:03:32;;;;;;;10.00;5.70;;;;;;;-2.17;50.54;102734.52;107525;1244;75583;-66
2022/03/17 01:06:01;;;;;;;12.90;6.00;;;;;;;-2.20;50.50;102730.73;107668;1244;73172;-65
2022/03/17 01:08:38;;;;;;;10.50;5.70;;;;;;;-2.25;50.38;102735.60;107619;1244;69840;-65
2022/03/17 01:11:07;;;;;;;8.50;5.20;;;;;;;-2.27;50.29;102738.83;107625;1244;73899;-66
2022/03/17 01:13:36;;;;;;;11.70;5.30;;;;;;;-2.33;50.48;102738.40;107641;1244;60493;-66
2022/03/17 01:16:06;;;;;;;9.50;5.30;;;;;;;-2.36;50.47;102733.92;107658;1246;57921;-65
2022/03/17 01:18:36;;;;;;;12.30;5.50;;;;;;;-2.37;50.23;102737.15;107710;1244;71256;-66
2022/03/17 01:21:06;;;;;;;9.40;5.10;;;;;;;-2.41;50.43;102734.02;107735;1244;71288;-68
2022/03/17 01:23:35;;;;;;;11.90;5.90;;;;;;;-2.50;50.90;102738.35;107679;1245;70346;-65
2022/03/17 01:26:04;;;;;;;13.80;5.30;;;;;;;-2.51;51.08;102741.74;107783;1244;74329;-69
2022/03/17 01:28:33;;;;;;;9.30;5.00;;;;;;;-2.57;50.56;102739.95;107677;1244;59648;-66
2022/03/17 01:31:02;;;;;;;16.40;5.80;;;;;;;-2.54;50.59;102744.94;107735;1244;62518;-65
2022/03/17 01:33:31;;;;;;;9.00;4.80;;;;;;;-2.53;50.18;102744.29;107604;1244;74117;-65
2022/03/17 01:36:00;;;;;;;8.70;4.70;;;;;;;-2.55;50.18;102747.16;107810;1244;72818;-65
2022/03/17 01:38:29;;;;;;;12.00;4.70;;;;;;;-2.62;50.41;102748.08;107753;1245;69601;-65
2022/03/17 01:40:58;;;;;;;10.40;4.70;;;;;;;-2.68;50.57;102749.02;107660;1246;71542;-64
2022/03/17 01:43:27;;;;;;;9.30;5.20;;;;;;;-2.72;50.60;102756.29;107735;1244;60538;-65
2022/03/17 01:45:56;;;;;;;8.50;4.80;;;;;;;-2.73;50.57;102761.05;107834;1244;62738;-66
2022/03/17 01:48:26;;;;;;;8.30;4.50;;;;;;;-2.78;50.90;102764.37;107716;1245;74104;-65
2022/03/17 01:50:54;;;;;;;8.40;4.80;;;;;;;-2.82;50.84;102766.52;107777;1245;72464;-65
2022/03/17 01:53:25;;;;;;;9.50;4.20;;;;;;;-2.87;51.35;102767.47;107713;1245;70383;-66
2022/03/17 01:55:54;;;;;;;6.10;3.20;;;;;;;-2.91;51.08;102774.05;107846;1244;73860;-66
2022/03/17 01:58:24;;;;;;;6.00;3.80;;;;;;;-2.94;51.11;102776.21;107711;1246;59607;-65
2022/03/17 02:00:53;;;;;;;7.90;4.60;;;;;;;-2.93;51.54;102778.28;107820;1244;60353;-69
2022/03/17 02:03:23;;;;;;;8.10;4.10;;;;;;;-2.93;51.08;102777.95;107858;1243;73275;-65
2022/03/17 02:05:55;;;;;;;9.20;4.30;;;;;;;-2.98;51.35;102778.20;107710;1240;71369;-65
2022/03/17 02:08:24;;;;;;;8.10;4.50;;;;;;;-3.05;51.60;102779.96;107872;1243;67980;-65
2022/03/17 02:13:41;;;;;;;10.10;4.80;;;;;;;-3.18;51.71;102779.06;107999;1243;59676;-68
2022/03/17 02:16:10;;;;;;;7.00;4.30;;;;;;;-3.18;51.74;102784.34;107804;1243;61803;-66
2022/03/17 02:18:40;;;;;;;11.30;4.90;;;;;;;-3.22;51.68;102787.52;107756;1243;73089;-68
2022/03/17 02:21:09;;;;;;;8.30;4.10;;;;;;;-3.23;51.84;102788.01;107827;1243;70863;-69
2022/03/17 02:26:27;;;;;;;8.80;5.00;;;;;;;-3.30;51.80;102791.79;107768;1243;74883;-64
2022/03/17 02:28:58;;;;;;;12.20;4.70;;;;;;;-3.25;51.78;102794.95;107742;1243;61331;-68
2022/03/17 02:31:27;;;;;;;11.80;4.20;;;;;;;-3.31;51.88;102800.82;107733;1243;59705;-66
2022/03/17 02:33:56;;;;;;;9.50;3.60;;;;;;;-3.31;52.08;102803.02;107799;1243;72171;-63
2022/03/17 02:36:25;;;;;;;8.20;3.60;;;;;;;-3.34;52.13;102807.91;107693;1244;70137;-67
2022/03/17 02:38:54;;;;;;;8.60;5.00;;;;;;;-3.33;52.10;102808.27;107803;1243;68509;-64
2022/03/17 02:41:23;;;;;;;8.30;4.70;;;;;;;-3.33;51.94;102812.02;107784;1243;71594;-65
2022/03/17 02:43:53;;;;;;;9.90;5.00;;;;;;;-3.34;52.00;102814.05;107762;1243;59668;-63
2022/03/17 02:46:22;;;;;;;9.60;5.00;;;;;;;-3.35;52.44;102816.24;107809;1243;61407;-66
2022/03/17 02:48:53;;;;;;;7.80;4.60;;;;;;;-3.34;52.34;102819.83;107914;1243;71756;-63
2022/03/17 02:51:22;;;;;;;10.50;5.70;;;;;;;-3.35;52.61;102824.58;107928;1243;70742;-66
2022/03/17 02:53:51;;;;;;;9.30;5.40;;;;;;;-3.37;52.29;102826.94;107947;1243;69112;-67
2022/03/17 02:56:20;;;;;;;9.90;4.80;;;;;;;-3.40;52.54;102828.23;107865;1243;72230;-65
2022/03/17 02:58:50;;;;;;;7.70;5.00;;;;;;;-3.48;52.67;102831.67;107778;1243;60495;-64
2022/03/17 03:01:19;;;;;;;10.00;4.70;;;;;;;-3.48;52.64;102835.41;107775;1244;60370;-65
2022/03/17 03:03:48;;;;;;;9.10;5.50;;;;;;;-3.52;52.95;102834.64;107939;1241;72546;-66
2022/03/17 03:06:17;;;;;;;9.90;5.30;;;;;;;-3.43;54.02;102836.35;107792;1243;71577;-64
2022/03/17 03:08:47;;;;;;;8.60;4.70;;;;;;;-3.45;52.82;102836.85;107777;1243;70236;-63
2022/03/17 03:11:16;;;;;;;11.00;4.90;;;;;;;-3.48;53.14;102830.82;107755;1243;72085;-64
2022/03/17 03:13:45;;;;;;;12.70;5.30;;;;;;;-3.45;52.72;102833.77;107757;1242;59747;-64
2022/03/17 03:16:14;;;;;;;8.70;4.90;;;;;;;-3.45;53.15;102835.13;107750;1244;59618;-63
2022/03/17 03:18:44;;;;;;;11.00;5.00;;;;;;;-3.48;52.78;102837.46;107841;1243;75526;-64
2022/03/17 03:21:14;;;;;;;12.60;4.80;;;;;;;-3.45;53.71;102843.65;107838;1243;71563;-64
2022/03/17 03:23:43;;;;;;;8.40;4.70;;;;;;;-3.55;53.23;102848.75;107922;1243;68293;-65
2022/03/17 03:26:12;;;;;;;10.60;4.90;;;;;;;-3.62;53.52;102851.48;107763;1243;72311;-65
2022/03/17 03:28:41;;;;;;;8.50;4.60;;;;;;;-3.73;53.86;102859.95;107798;1243;59565;-65
2022/03/17 03:31:11;;;;;;;9.60;5.00;;;;;;;-3.75;54.61;102861.25;107779;1243;59956;-64
2022/03/17 03:33:42;;;;;;;8.40;4.60;;;;;;;-3.78;54.28;102868.02;107813;1243;74109;-65
2022/03/17 03:38:58;;;;;;;9.30;5.20;;;;;;;-3.86;54.62;102875.49;107759;1245;69149;-64
2022/03/17 03:41:27;;;;;;;9.00;5.40;;;;;;;-3.91;54.80;102878.80;107727;1243;72317;-64
2022/03/17 03:43:58;;;;;;;10.40;5.30;;;;;;;-3.96;54.96;102880.05;107685;1243;59552;-64
2022/03/17 03:46:27;;;;;;;17.40;6.40;;;;;;;-4.02;54.89;102879.93;107758;1244;59513;-65
2022/03/17 03:48:56;;;;;;;17.10;7.60;;;;;;;-4.04;55.01;102884.83;107627;1243;73429;-66
2022/03/17 03:51:25;;;;;;;15.90;7.90;;;;;;;-4.03;55.09;102887.06;107602;1243;73020;-64
2022/03/17 03:56:55;;;;;;;14.40;7.10;;;;;;;-4.02;55.07;102889.96;107526;1245;71964;-64
2022/03/17 03:59:26;;;;;;;13.40;6.40;;;;;;;-4.12;54.45;102892.13;107625;1243;59842;-65
2022/03/17 04:02:05;;;;;;;11.20;6.90;;;;;;;-4.17;55.67;102898.99;107508;1243;61207;-65
2022/03/17 04:04:38;;;;;;;12.20;5.90;;;;;;;-4.23;55.33;102899.52;107336;1246;75298;-65
2022/03/17 04:07:10;;;;;;;13.60;6.20;;;;;;;-4.27;56.02;102903.17;107474;1246;72819;-64
2022/03/17 04:09:42;;;;;;;12.00;6.50;;;;;;;-4.31;55.73;102911.23;107556;1245;68835;-67
2022/03/17 04:12:14;;;;;;;14.20;5.90;;;;;;;-4.34;56.36;102913.73;107676;1245;72524;-67
2022/03/17 04:14:43;;;;;;;10.90;5.50;;;;;;;-4.41;56.16;102914.05;107649;1244;61010;-66
2022/03/17 04:17:16;;;;;;;12.80;6.40;;;;;;;-4.46;56.75;102919.04;107624;1245;61832;-65
2022/03/17 04:19:45;;;;;;;14.30;7.20;;;;;;;-4.50;56.90;102920.80;107601;1246;75262;-65
2022/03/17 04:22:14;;;;;;;15.90;6.50;;;;;;;-4.52;57.19;102924.33;107589;1245;71931;-67
2022/03/17 04:24:44;;;;;;;22.00;8.30;;;;;;;-4.56;57.27;102924.75;107565;1245;70630;-65
2022/03/17 04:27:13;;;;;;;12.30;6.20;;;;;;;-4.57;57.43;102934.74;107633;1244;72858;-65
2022/03/17 04:29:41;;;;;;;12.00;5.00;;;;;;;-4.60;57.45;102941.48;107474;1246;61674;-63
2022/03/17 04:32:10;;;;;;;13.80;6.80;;;;;;;-4.60;56.96;102939.95;107555;1245;60480;-64
2022/03/17 04:34:39;;;;;;;15.70;7.10;;;;;;;-4.57;57.13;102951.25;107493;1244;72752;-66
2022/03/17 04:37:08;;;;;;;14.90;6.30;;;;;;;-4.57;56.95;102952.27;107299;1246;72040;-67
2022/03/17 04:39:37;;;;;;;15.80;6.90;;;;;;;-4.52;56.83;102951.55;107405;1247;71313;-66
2022/03/17 04:42:08;;;;;;;15.80;6.80;;;;;;;-4.45;57.19;102956.64;107481;1246;74122;-64
2022/03/17 04:44:37;;;;;;;12.00;5.70;;;;;;;-4.43;56.90;102962.14;107480;1245;61605;-66
2022/03/17 04:47:07;;;;;;;10.70;6.50;;;;;;;-4.40;56.89;102958.48;107586;1245;61074;-66
2022/03/17 04:49:35;;;;;;;11.90;5.70;;;;;;;-4.32;57.31;102954.08;107504;1245;74501;-68
2022/03/17 04:53:26;;;;;;;14.30;6.40;;;;;;;-4.33;56.81;102958.66;107688;1244;73017;-69
2022/03/17 04:54:55;;;;;;;15.10;6.40;;;;;;;-4.31;56.63;102963.80;107542;1246;69842;-69
2022/03/17 04:57:25;;;;;;;14.20;6.30;;;;;;;-4.24;56.48;102969.94;107762;1245;73819;-69
2022/03/17 04:59:54;;;;;;;14.10;7.10;;;;;;;-4.21;56.23;102970.67;107687;1244;61191;-70
2022/03/17 05:02:23;;;;;;;14.20;6.10;;;;;;;-4.19;56.35;102977.38;107613;1245;60094;-71
2022/03/17 05:04:52;;;;;;;14.00;6.30;;;;;;;-4.18;56.23;102977.75;107665;1246;72844;-70
2022/03/17 05:07:22;;;;;;;16.80;7.40;;;;;;;-4.11;56.36;102987.46;107411;1246;72329;-74
2022/03/17 05:09:51;;;;;;;12.60;6.70;;;;;;;-4.02;56.64;102990.22;107920;1245;69607;-73
2022/03/17 05:12:19;;;;;;;18.10;7.00;;;;;;;-3.97;56.25;102989.83;107889;1246;74008;-73
2022/03/17 05:14:48;;;;;;;13.80;6.80;;;;;;;-3.91;56.27;102994.91;107608;1246;60881;-67
2022/03/17 05:17:17;;;;;;;10.10;6.10;;;;;;;-3.87;55.98;102997.55;107620;1245;63174;-70
2022/03/17 05:19:46;;;;;;;14.00;6.40;;;;;;;-3.79;56.02;103005.08;107645;1246;75606;-72
2022/03/17 05:22:15;;;;;;;15.20;7.00;;;;;;;-3.69;55.36;103008.53;107673;1246;72831;-69
2022/03/17 05:24:45;;;;;;;11.60;6.60;;;;;;;-3.60;54.99;103009.42;107752;1245;70361;-72
2022/03/17 05:27:14;;;;;;;19.50;7.90;;;;;;;-3.49;54.58;103012.91;107739;1245;72826;-69
2022/03/17 05:29:43;;;;;;;17.00;7.30;;;;;;;-3.39;54.51;103013.98;107691;1244;60946;-71
2022/03/17 05:32:12;;;;;;;22.50;8.90;;;;;;;-3.28;53.81;103015.77;107645;1246;59596;-70
2022/03/17 05:34:41;;;;;;;13.20;7.80;;;;;;;-3.15;54.35;103017.90;107578;1246;72773;-69
2022/03/17 05:37:10;;;;;;;14.90;7.30;;;;;;;-3.10;53.39;103021.27;107775;1244;70676;-69
2022/03/17 05:39:40;;;;;;;13.50;6.90;;;;;;;-3.02;53.38;103019.20;107772;1245;68886;-70
2022/03/17 05:42:09;;;;;;;17.20;7.60;;;;;;;-2.95;52.69;103019.88;107801;1245;73678;-70
2022/03/17 05:44:38;;;;;;;19.80;9.10;;;;;;;-2.84;53.21;103023.68;107604;1245;61242;-70
2022/03/17 05:47:07;;;;;;;30.10;11.80;;;;;;;-2.76;52.41;103026.73;107791;1244;62179;-71
2022/03/17 05:49:35;;;;;;;23.70;11.30;;;;;;;-2.74;52.19;103018.08;107622;1246;74360;-72
2022/03/17 05:52:06;;;;;;;28.10;13.30;;;;;;;-2.61;51.77;103027.34;107650;1246;72558;-71
2022/03/17 05:54:35;;;;;;;28.70;11.50;;;;;;;-2.48;51.76;103032.89;107566;1245;68540;-71
2022/03/17 05:57:04;;;;;;;22.40;9.90;;;;;;;-2.41;51.70;103036.27;107645;1244;71960;-69
2022/03/17 05:59:35;;;;;;;20.10;9.30;;;;;;;-2.36;52.02;103035.52;107461;1246;60040;-69
2022/03/17 06:02:05;;;;;;;26.10;10.40;;;;;;;-2.27;51.82;103032.95;107661;1244;60209;-70
2022/03/17 06:04:46;;;;;;;28.80;11.00;;;;;;;-2.13;51.99;103038.98;107788;1245;72857;-68
2022/03/17 06:07:14;;;;;;;17.40;9.30;;;;;;;-2.05;51.11;103038.26;107756;1245;73366;-69
2022/03/17 06:09:44;;;;;;;19.70;9.90;;;;;;;-1.93;51.68;103042.91;107673;1246;72132;-71
2022/03/17 06:12:13;;;;;;;18.60;9.90;;;;;;;-1.85;50.91;103045.10;107788;1244;74708;-71
2022/03/17 06:14:42;;;;;;;17.50;9.90;;;;;;;-1.77;50.99;103045.22;107740;1245;59660;-69
2022/03/17 06:17:12;;;;;;;25.40;10.60;;;;;;;-1.73;50.73;103049.39;107205;1245;736490;-70
2022/03/17 06:19:41;;;;;;;21.30;10.80;;;;;;;-1.67;50.58;103049.81;107570;1246;75140;-70
2022/03/17 06:22:10;;;;;;;28.10;13.80;;;;;;;-1.68;50.24;103051.33;107833;1245;70704;-71
2022/03/17 06:24:39;;;;;;;31.50;12.70;;;;;;;-1.63;50.42;103055.86;107646;1246;69124;-69
2022/03/17 06:27:08;;;;;;;35.60;15.00;;;;;;;-1.52;50.45;103053.13;107735;1246;71971;-70
2022/03/17 06:29:37;;;;;;;25.70;12.50;;;;;;;-1.51;50.45;103057.77;107589;1246;60050;-69
2022/03/17 06:32:07;;;;;;;28.00;12.00;;;;;;;-1.39;50.30;103065.80;107549;1246;58933;-69
2022/03/17 06:34:36;;;;;;;24.00;9.90;;;;;;;-1.27;50.20;103065.30;107589;1244;73635;-68
2022/03/17 06:37:05;;;;;;;17.30;9.80;;;;;;;-1.11;49.72;103073.55;107567;1244;73109;-71
2022/03/17 06:39:34;;;;;;;8.40;6.00;;;;;;;-0.98;49.14;103071.85;107512;1244;71306;-70
2022/03/17 06:42:03;;;;;;;16.00;8.10;;;;;;;-0.88;48.36;103071.98;107455;1246;74229;-70
2022/03/17 06:44:32;;;;;;;12.30;7.10;;;;;;;-0.81;47.93;103078.73;107631;1246;59697;-71
2022/03/17 06:47:01;;;;;;;17.60;7.70;;;;;;;-0.76;47.10;103080.85;107563;1244;60996;-70
2022/03/17 06:49:30;;;;;;;11.30;7.00;;;;;;;-0.68;47.43;103084.21;107493;1246;73053;-70
2022/03/17 06:51:59;;;;;;;19.30;9.00;;;;;;;-0.57;47.00;103084.67;107442;1246;70752;-69
2022/03/17 06:54:28;;;;;;;15.30;7.30;;;;;;;-0.44;46.97;103088.59;109150;1245;68714;-71
2022/03/17 06:56:59;;;;;;;16.60;8.70;;;;;;;-0.34;46.76;103087.66;107361;1246;71209;-70
2022/03/17 06:59:28;;;;;;;17.60;8.40;;;;;;;-0.29;45.74;103084.81;108242;1245;59817;-69
2022/03/17 07:01:57;;;;;;;17.70;9.00;;;;;;;-0.16;45.58;103087.69;107355;1246;61064;-70
2022/03/17 07:04:26;;;;;;;13.80;6.40;;;;;;;-0.02;45.31;103085.95;109691;1244;73853;-69
2022/03/17 07:06:55;;;;;;;11.90;5.10;;;;;;;0.07;44.90;103086.54;107989;1244;69590;-70
2022/03/17 07:09:24;;;;;;;15.20;6.40;;;;;;;0.09;43.90;103091.20;107575;1245;68994;-70
2022/03/17 07:11:53;;;;;;;12.00;6.00;;;;;;;0.22;44.02;103086.85;107448;1245;76227;-69
2022/03/17 07:14:23;;;;;;;11.10;5.20;;;;;;;0.31;43.59;103088.13;107843;1244;61071;-71
2022/03/17 07:16:51;;;;;;;9.10;5.30;;;;;;;0.44;44.46;103089.41;107687;1245;61456;-72
2022/03/17 07:19:21;;;;;;;10.10;5.40;;;;;;;0.48;43.30;103092.19;107644;1245;75921;-72
2022/03/17 07:21:53;;;;;;;7.90;4.80;;;;;;;0.60;44.10;103095.70;107606;1246;70712;-71
2022/03/17 07:24:22;;;;;;;12.80;6.00;;;;;;;0.70;44.70;103096.64;107701;1245;67986;-71
2022/03/17 07:26:52;;;;;;;10.40;5.80;;;;;;;0.71;43.03;103099.39;107500;1246;74028;-69
2022/03/17 07:29:21;;;;;;;9.20;4.70;;;;;;;0.69;43.12;103102.30;107557;1245;60359;-70
2022/03/17 07:31:54;;;;;;;8.50;4.30;;;;;;;0.84;43.73;103101.20;107624;1244;61719;-70
2022/03/17 07:34:25;;;;;;;12.70;5.30;;;;;;;0.71;42.43;103100.60;107554;1246;72505;-69
2022/03/17 07:36:53;;;;;;;7.70;4.60;;;;;;;0.69;42.25;103098.52;107588;1246;71432;-69
2022/03/17 07:39:22;;;;;;;6.60;4.10;;;;;;;0.71;42.36;103092.02;107287;1246;71344;-69
2022/03/17 07:41:51;;;;;;;9.90;5.00;;;;;;;0.63;42.35;103092.65;107480;1246;74013;-70
2022/03/17 07:44:20;;;;;;;9.60;5.10;;;;;;;0.80;41.97;103095.85;107497;1246;60333;-70
2022/03/17 07:47:09;;;;;;;9.80;5.40;;;;;;;0.89;41.83;103097.10;107664;1244;59063;-70
2022/03/17 07:49:42;;;;;;;9.90;4.70;;;;;;;1.03;41.76;103100.09;107592;1246;75428;-72
2022/03/17 07:52:11;;;;;;;7.70;4.60;;;;;;;1.10;41.18;103096.70;107488;1246;70508;-71
2022/03/17 07:54:40;;;;;;;8.20;5.00;;;;;;;1.11;41.54;103097.40;107652;1245;68965;-70
2022/03/17 07:57:10;;;;;;;16.90;5.40;;;;;;;1.15;41.37;103093.48;107501;1246;71688;-70
2022/03/17 07:59:40;;;;;;;11.80;5.10;;;;;;;1.24;41.47;103090.08;107572;1246;59433;-68
2022/03/17 08:02:09;;;;;;;8.50;5.20;;;;;;;1.31;41.37;103094.05;107529;1246;61083;-72
2022/03/17 08:04:38;;;;;;;10.90;5.40;;;;;;;1.36;41.56;103092.88;107644;1246;71615;-73
2022/03/17 08:07:07;;;;;;;7.90;4.80;;;;;;;1.48;41.54;103089.14;107745;1244;71442;-71
2022/03/17 08:09:36;;;;;;;12.20;6.00;;;;;;;1.47;41.79;103091.02;107494;1246;70473;-69
2022/03/17 08:12:06;;;;;;;10.20;4.90;;;;;;;1.49;41.80;103089.65;107575;1245;74923;-71
2022/03/17 08:14:35;;;;;;;8.80;5.40;;;;;;;1.56;41.38;103090.71;107671;1244;59617;-69
2022/03/17 08:17:05;;;;;;;11.10;5.00;;;;;;;1.45;41.41;103090.50;107787;1244;59006;-70
2022/03/17 08:19:34;;;;;;;7.00;4.70;;;;;;;1.49;41.46;103087.93;107860;1246;71953;-71
2022/03/17 08:22:04;;;;;;;8.10;4.60;;;;;;;1.65;40.62;103084.89;107930;1244;69941;-71
2022/03/17 08:24:34;;;;;;;7.50;4.20;;;;;;;1.69;40.50;103089.71;107973;1244;67967;-69
2022/03/17 08:27:05;;;;;;;11.30;4.90;;;;;;;1.82;40.96;103085.78;107943;1245;71655;-70
2022/03/17 08:29:35;;;;;;;8.90;4.60;;;;;;;1.78;40.45;103083.89;107970;1244;59650;-70
2022/03/17 08:32:06;;;;;;;8.50;5.10;;;;;;;1.82;40.89;103079.95;107888;1245;59177;-71
2022/03/17 08:34:35;;;;;;;6.30;4.30;;;;;;;1.70;40.40;103075.63;107440;1246;73488;-71
2022/03/17 08:37:04;;;;;;;7.70;4.10;;;;;;;1.63;40.76;103075.11;107601;1245;72345;-72
2022/03/17 08:39:33;;;;;;;11.00;5.60;;;;;;;1.68;40.53;103068.25;107539;1244;71555;-72
2022/03/17 08:42:03;;;;;;;11.20;5.70;;;;;;;1.89;40.08;103068.97;107708;1244;73541;-69
2022/03/17 08:44:32;;;;;;;9.20;4.50;;;;;;;2.06;39.55;103068.46;107818;1245;59729;-69
2022/03/17 08:49:48;;;;;;;7.70;3.90;;;;;;;1.99;37.22;103074.47;107709;1245;72504;-70
2022/03/17 08:52:19;;;;;;;7.00;3.50;;;;;;;2.13;38.33;103073.27;107610;1245;70687;-69
2022/03/17 08:54:50;;;;;;;5.80;3.60;;;;;;;2.33;36.48;103076.03;107796;1246;69102;-67
2022/03/17 08:57:18;;;;;;;7.90;3.70;;;;;;;2.31;35.44;103070.88;107768;1244;73222;-70
2022/03/17 08:59:48;;;;;;;6.90;3.70;;;;;;;2.36;36.24;103067.77;107772;1245;60959;-70
2022/03/17 09:02:18;;;;;;;6.50;3.50;;;;;;;2.37;37.31;103068.81;107791;1244;61636;-71
2022/03/17 09:04:48;;;;;;;8.50;4.00;;;;;;;2.29;35.87;103071.39;107641;1246;75283;-72
2022/03/17 09:07:17;;;;;;;7.40;3.50;;;;;;;2.22;36.34;103069.50;107553;1246;71285;-71
2022/03/17 09:09:46;;;;;;;7.30;4.20;;;;;;;2.22;35.55;103071.73;107758;1246;67967;-72
2022/03/17 09:12:16;;;;;;;8.00;4.30;;;;;;;2.21;36.05;103072.24;107733;1246;71364;-73
2022/03/17 09:14:47;;;;;;;10.20;4.10;;;;;;;2.36;35.87;103072.77;107524;1246;59688;-70
2022/03/17 09:17:16;;;;;;;8.80;4.20;;;;;;;2.56;35.13;103073.09;107480;1246;61065;-66
2022/03/17 09:19:45;;;;;;;10.10;4.80;;;;;;;2.67;34.28;103068.77;107559;1244;74671;-68
2022/03/17 09:22:14;;;;;;;9.80;5.10;;;;;;;2.64;33.84;103068.95;107296;1248;71355;-70
2022/03/17 09:24:46;;;;;;;7.50;3.70;;;;;;;2.76;33.88;103071.16;107499;1245;69071;-70
2022/03/17 09:27:16;;;;;;;8.20;3.30;;;;;;;2.79;32.26;103072.36;107559;1245;72348;-70
2022/03/17 09:29:45;;;;;;;7.40;3.70;;;;;;;2.67;30.88;103071.87;107525;1244;59542;-70
2022/03/17 09:32:15;;;;;;;7.10;3.80;;;;;;;2.83;31.53;103070.11;107464;1245;60673;-71
2022/03/17 09:34:44;;;;;;;9.10;4.30;;;;;;;3.00;32.34;103070.75;107541;1246;74974;-72
2022/03/17 09:37:13;;;;;;;8.30;4.20;;;;;;;3.23;32.14;103071.02;107470;1244;72331;-70
2022/03/17 09:39:47;;;;;;;8.30;4.20;;;;;;;3.27;31.76;103075.82;107503;1244;69605;-69
2022/03/17 09:42:19;;;;;;;9.20;3.80;;;;;;;3.19;31.82;103073.44;107582;1245;72014;-70
2022/03/17 09:44:52;;;;;;;8.10;3.30;;;;;;;3.13;31.12;103078.11;107572;1244;59563;-69
2022/03/17 09:47:27;;;;;;;8.10;4.40;;;;;;;3.09;30.86;103079.50;107547;1246;60481;-70
2022/03/17 09:49:58;;;;;;;12.50;7.40;;;;;;;2.93;31.17;103076.80;107554;1244;75074;-70
2022/03/17 09:52:28;;;;;;;9.70;6.30;;;;;;;2.74;32.27;103080.63;107616;1244;73191;-70
2022/03/17 09:54:57;;;;;;;12.60;5.70;;;;;;;2.77;32.66;103081.14;107545;1245;71616;-70
2022/03/17 09:57:26;;;;;;;12.20;5.30;;;;;;;2.93;31.91;103078.70;107652;1245;75635;-73
2022/03/17 09:59:59;;;;;;;18.70;10.70;;;;;;;3.21;31.94;103087.89;107707;1244;59643;-70
2022/03/17 10:02:30;;;;;;;13.20;9.20;;;;;;;3.22;32.07;103080.98;107604;1245;59876;-70
2022/03/17 10:05:01;;;;;;;15.70;8.90;;;;;;;3.25;32.39;103082.55;107580;1244;71757;-69
2022/03/17 10:07:34;;;;;;;14.30;9.00;;;;;;;3.29;32.86;103081.31;107382;1244;70861;-70
2022/03/17 10:10:04;;;;;;;16.20;8.60;;;;;;;3.19;33.02;103078.27;107580;1246;68024;-71
2022/03/17 10:12:34;;;;;;;17.50;9.10;;;;;;;3.33;33.38;103071.66;107788;1245;72208;-69
2022/03/17 10:15:05;;;;;;;13.40;7.80;;;;;;;3.38;32.75;103070.42;107734;1244;61501;-70
2022/03/17 10:17:39;;;;;;;13.20;7.80;;;;;;;3.46;32.46;103064.53;107720;1245;60924;-69
2022/03/17 10:20:22;;;;;;;17.00;8.00;;;;;;;3.29;32.64;103068.57;107706;1246;72895;-69
2022/03/17 10:23:01;;;;;;;13.50;6.40;;;;;;;3.39;31.47;103073.52;107675;1246;69870;-70
2022/03/17 10:25:34;;;;;;;8.90;5.10;;;;;;;3.58;31.21;103062.39;107640;1246;70608;-69
2022/03/17 10:28:04;;;;;;;9.40;6.10;;;;;;;3.54;30.52;103061.22;107477;1246;73960;-70
2022/03/17 10:30:35;;;;;;;10.90;5.70;;;;;;;3.65;31.03;103064.42;107628;1245;60140;-70
2022/03/17 10:33:21;;;;;;;11.80;6.40;;;;;;;3.61;30.42;103048.42;107509;1246;59325;-70
2022/03/17 10:35:51;;;;;;;10.30;5.50;;;;;;;4.04;31.16;103045.70;107573;1244;72905;-69
2022/03/17 10:38:27;;;;;;;8.40;3.90;;;;;;;4.45;29.87;103055.53;107518;1244;72314;-70
2022/03/17 10:41:04;;;;;;;8.50;4.60;;;;;;;4.82;29.88;103047.89;107715;1246;70849;-70
2022/03/17 10:43:34;;;;;;;11.40;4.60;;;;;;;5.07;29.09;103046.90;107685;1244;73446;-71
2022/03/17 10:46:11;;;;;;;8.60;4.60;;;;;;;5.40;28.38;103038.54;107572;1244;60436;-72
2022/03/17 10:49:05;;;;;;;7.40;4.30;;;;;;;5.95;29.26;103034.96;107744;1244;60065;-71
2022/03/17 10:51:37;;;;;;;7.40;4.70;;;;;;;5.63;27.72;103034.92;107741;1244;72461;-70
2022/03/17 10:54:20;;;;;;;9.40;5.50;;;;;;;5.45;27.32;103027.06;107767;1246;70749;-72
2022/03/17 10:57:04;;;;;;;12.20;7.00;;;;;;;6.01;26.62;103029.34;107709;1244;70851;-71
2022/03/17 10:59:50;;;;;;;10.30;5.80;;;;;;;5.77;25.83;103033.14;107645;1244;73982;-70
2022/03/17 11:02:21;;;;;;;7.90;5.10;;;;;;;6.06;25.99;103029.28;107486;1246;60289;-70
2022/03/17 11:04:51;;;;;;;11.60;6.60;;;;;;;6.27;24.77;103027.02;107784;1244;60069;-71
2022/03/17 11:07:21;;;;;;;11.80;5.70;;;;;;;6.22;24.62;103025.20;107746;1246;72760;-71
2022/03/17 11:09:50;;;;;;;9.60;5.00;;;;;;;5.74;24.80;103028.53;107772;1245;71766;-71
2022/03/17 11:12:20;;;;;;;10.10;5.30;;;;;;;6.12;24.65;103020.88;107534;1246;71438;-71
2022/03/17 11:14:53;;;;;;;7.70;4.40;;;;;;;6.55;23.92;103024.25;107604;1246;75582;-70
2022/03/17 11:17:31;;;;;;;;;;;;;;;6.69;23.12;103026.77;107622;1244;61490;-71
2022/03/17 11:20:07;;;;;;;8.90;4.00;;;;;;;6.70;23.28;103028.47;107741;1244;60410;-70
2022/03/17 11:22:37;;;;;;;7.70;4.30;;;;;;;6.56;24.15;103026.48;107805;1246;74363;-70
2022/03/17 11:25:34;;;;;;;7.40;4.30;;;;;;;6.16;24.92;103021.15;107746;1244;72303;-71
2022/03/17 11:28:05;;;;;;;6.10;4.10;;;;;;;6.32;24.56;103022.94;107889;1244;68303;-71
2022/03/17 11:30:41;;;;;;;13.50;4.80;;;;;;;5.85;25.27;103020.74;107866;1245;72348;-71
2022/03/17 11:33:27;;;;;;;5.20;3.40;;;;;;;6.00;25.38;103021.73;107766;1245;59650;-71
2022/03/17 11:36:00;;;;;;;12.40;6.50;;;;;;;6.22;24.18;103027.27;107717;1246;59629;-71
2022/03/17 11:38:32;;;;;;;;;;;;;;;6.07;23.65;103029.06;107846;1244;71753;-71
2022/03/17 11:41:21;;;;;;;10.00;5.80;;;;;;;6.51;22.64;103028.64;107735;1244;72199;-71
2022/03/17 11:43:50;;;;;;;10.90;5.80;;;;;;;6.98;23.08;103021.69;107622;1245;69245;-71